createdAt,value
2018-12-24T00:00:40.289Z,99463.20
2018-12-24T00:03:06.595Z,99468.13
2018-12-24T00:05:32.957Z,99468.13
2018-12-24T00:07:59.242Z,99459.91
2018-12-24T00:10:25.527Z,99469.94
2018-12-24T00:12:51.878Z,99470.16
2018-12-24T00:15:18.153Z,99473.94
2018-12-24T00:17:44.431Z,99477.77
2018-12-24T00:20:10.955Z,99485.87
2018-12-24T00:22:37.242Z,99487.73
2018-12-24T00:25:03.516Z,99492.48
2018-12-24T00:27:30.216Z,99494.23
2018-12-24T00:29:56.503Z,99501.39
2018-12-24T00:32:22.766Z,99503.63
2018-12-24T00:34:49.462Z,99508.67
2018-12-24T00:37:15.752Z,99508.23
2018-12-24T00:39:42.088Z,99512.33
2018-12-24T00:42:15.799Z,99508.16
2018-12-24T00:44:37.096Z,99503.01
2018-12-24T00:47:03.361Z,99502.73
2018-12-24T00:49:29.853Z,99499.05
2018-12-24T00:51:56.144Z,99498.20
2018-12-24T00:54:22.420Z,99499.97
2018-12-24T00:56:48.928Z,99503.69
2018-12-24T00:59:15.196Z,99503.95
2018-12-24T01:01:41.480Z,99503.95
2018-12-24T01:04:07.985Z,99497.20
2018-12-24T01:06:34.257Z,99497.49
2018-12-24T01:09:00.544Z,99500.27
2018-12-24T01:11:27.182Z,99505.31
2018-12-24T01:13:53.462Z,99499.55
2018-12-24T01:16:19.729Z,99494.73
2018-12-24T01:18:46.245Z,99492.05
2018-12-24T01:21:12.538Z,99492.20
2018-12-24T01:23:38.811Z,99486.91
2018-12-24T01:26:05.162Z,99485.69
2018-12-24T01:28:31.445Z,99481.53
2018-12-24T01:30:57.726Z,99486.30
2018-12-24T01:33:24.237Z,99482.34
2018-12-24T01:35:50.511Z,99477.52
2018-12-24T01:38:16.800Z,99480.91
2018-12-24T01:40:43.240Z,99489.23
2018-12-24T01:43:09.528Z,99488.83
2018-12-24T01:45:36.470Z,99494.30
2018-12-24T01:48:02.955Z,99497.25
2018-12-24T01:50:29.234Z,99498.17
2018-12-24T01:52:55.797Z,99493.42
2018-12-24T01:55:22.464Z,99495.77
2018-12-24T01:57:48.850Z,99496.77
2018-12-24T02:00:15.155Z,99495.30
2018-12-24T02:02:41.434Z,99494.14
2018-12-24T02:05:07.963Z,99504.16
2018-12-24T02:07:34.238Z,99494.64
2018-12-24T02:10:00.753Z,99489.81
2018-12-24T02:12:27.088Z,99495.56
2018-12-24T02:14:53.368Z,99496.05
2018-12-24T02:17:19.896Z,99499.50
2018-12-24T02:19:46.179Z,99499.72
2018-12-24T02:22:12.900Z,99500.38
2018-12-24T02:24:39.454Z,99499.39
2018-12-24T02:27:05.733Z,99502.73
2018-12-24T02:29:32.043Z,99505.41
2018-12-24T02:31:58.492Z,99503.77
2018-12-24T02:34:24.760Z,99507.56
2018-12-24T02:36:51.033Z,99511.16
2018-12-24T02:39:17.516Z,99507.22
2018-12-24T02:41:43.788Z,99508.05
2018-12-24T02:44:10.060Z,99502.62
2018-12-24T02:46:36.901Z,99515.44
2018-12-24T02:49:03.176Z,99508.00
2018-12-24T02:51:29.464Z,99504.86
2018-12-24T02:53:56.253Z,99510.67
2018-12-24T02:56:22.543Z,99505.41
2018-12-24T02:58:49.097Z,99519.70
2018-12-24T03:01:15.434Z,99523.69
2018-12-24T03:03:41.720Z,99523.47
2018-12-24T03:06:08.016Z,99530.35
2018-12-24T03:08:34.469Z,99538.23
2018-12-24T03:11:00.749Z,99544.16
2018-12-24T03:13:27.022Z,99543.98
2018-12-24T03:15:53.474Z,99542.84
2018-12-24T03:18:19.743Z,99546.17
2018-12-24T03:20:46.034Z,99553.55
2018-12-24T03:23:12.353Z,99553.98
2018-12-24T03:25:38.644Z,99548.25
2018-12-24T03:28:04.942Z,99545.63
2018-12-24T03:30:31.646Z,99550.00
2018-12-24T03:32:57.924Z,99547.74
2018-12-24T03:35:24.248Z,99549.33
2018-12-24T03:37:51.370Z,99560.64
2018-12-24T03:40:17.644Z,99559.78
2018-12-24T03:42:43.917Z,99558.79
2018-12-24T03:45:10.634Z,99553.70
2018-12-24T03:47:37.230Z,99552.70
2018-12-24T03:50:03.716Z,99556.48
2018-12-24T03:52:30.526Z,99558.29
2018-12-24T03:54:56.807Z,99565.67
2018-12-24T03:57:23.110Z,99570.27
2018-12-24T03:59:49.621Z,99566.66
2018-12-24T04:02:15.895Z,99573.77
2018-12-24T04:04:42.210Z,99578.59
2018-12-24T04:07:08.764Z,99575.65
2018-12-24T04:09:35.051Z,99587.86
2018-12-24T04:12:01.780Z,99595.46
2018-12-24T04:14:28.248Z,99595.81
2018-12-24T04:16:54.539Z,99597.95
2018-12-24T04:19:20.829Z,99597.61
2018-12-24T04:21:47.550Z,99607.84
2018-12-24T04:24:13.852Z,99610.45
2018-12-24T04:26:40.403Z,99616.69
2018-12-24T04:29:06.926Z,99624.42
2018-12-24T04:31:33.233Z,99628.20
2018-12-24T04:33:59.780Z,99645.47
2018-12-24T04:36:26.275Z,99664.34
2018-12-24T04:38:52.559Z,99663.13
2018-12-24T04:41:18.830Z,99678.57
2018-12-24T04:43:45.484Z,99686.70
2018-12-24T04:46:11.772Z,99691.30
2018-12-24T04:48:38.631Z,99695.45
2018-12-24T04:51:05.108Z,99704.98
2018-12-24T04:53:31.374Z,99713.96
2018-12-24T04:55:57.646Z,99724.47
2018-12-24T04:58:24.109Z,99737.14
2018-12-24T05:00:50.418Z,99739.86
2018-12-24T05:03:17.064Z,99755.28
2018-12-24T05:05:43.573Z,99766.07
2018-12-24T05:08:09.872Z,99776.23
2018-12-24T05:10:36.127Z,99791.33
2018-12-24T05:13:02.644Z,99803.64
2018-12-24T05:15:28.908Z,99810.25
2018-12-24T05:17:55.245Z,99822.90
2018-12-24T05:20:21.705Z,99839.30
2018-12-24T05:22:47.988Z,99851.45
2018-12-24T05:25:14.262Z,99864.58
2018-12-24T05:27:41.214Z,99870.42
2018-12-24T05:30:07.487Z,99893.86
2018-12-24T05:32:33.779Z,99897.47
2018-12-24T05:35:00.173Z,99912.56
2018-12-24T05:37:26.390Z,99922.77
2018-12-24T05:39:52.673Z,99936.92
2018-12-24T05:42:19.121Z,99951.35
2018-12-24T05:44:45.406Z,99964.78
2018-12-24T05:47:11.681Z,99972.88
2018-12-24T05:49:38.660Z,99985.76
2018-12-24T05:52:04.929Z,99991.62
2018-12-24T05:54:31.266Z,100005.95
2018-12-24T05:56:57.869Z,100018.73
2018-12-24T05:59:24.161Z,100028.48
2018-12-24T06:01:50.430Z,100042.45
2018-12-24T06:04:17.095Z,100053.84
2018-12-24T06:06:43.411Z,100057.30
2018-12-24T06:09:09.699Z,100077.56
2018-12-24T06:11:36.806Z,100093.48
2018-12-24T06:14:03.080Z,100108.84
2018-12-24T06:16:29.377Z,100123.50
2018-12-24T06:18:55.886Z,100131.85
2018-12-24T06:21:22.179Z,100137.83
2018-12-24T06:23:48.448Z,100149.28
2018-12-24T06:26:14.780Z,100163.53
2018-12-24T06:28:41.106Z,100165.95
2018-12-24T06:31:07.522Z,100183.99
2018-12-24T06:33:33.950Z,100193.52
2018-12-24T06:36:00.240Z,100203.73
2018-12-24T06:38:26.623Z,100210.80
2018-12-24T06:40:53.125Z,100215.97
2018-12-24T06:43:19.411Z,100232.84
2018-12-24T06:45:45.953Z,100235.95
2018-12-24T06:48:12.465Z,100241.34
2018-12-24T06:50:38.732Z,100248.67
2018-12-24T06:53:05.010Z,100260.81
2018-12-24T06:55:31.408Z,100262.38
2018-12-24T06:57:57.693Z,100274.16
2018-12-24T07:00:23.974Z,100279.42
2018-12-24T07:02:50.876Z,100282.65
2018-12-24T07:05:17.160Z,100299.14
2018-12-24T07:07:43.458Z,100302.91
2018-12-24T07:10:10.017Z,100310.47
2018-12-24T07:12:36.284Z,100319.41
2018-12-24T07:15:02.952Z,100323.53
2018-12-24T07:17:29.291Z,100330.38
2018-12-24T07:19:55.580Z,100335.80
2018-12-24T07:22:21.859Z,100344.48
2018-12-24T07:24:48.426Z,100349.00
2018-12-24T07:27:14.708Z,100348.83
2018-12-24T07:29:40.970Z,100366.19
2018-12-24T07:32:07.892Z,100361.70
2018-12-24T07:34:34.444Z,100371.19
2018-12-24T07:37:00.841Z,100372.45
2018-12-24T07:39:27.276Z,100386.61
2018-12-24T07:41:53.588Z,100386.44
2018-12-24T07:44:24.129Z,100401.84
2018-12-24T07:46:48.577Z,100413.30
2018-12-24T07:49:14.889Z,100424.75
2018-12-24T07:51:41.194Z,100433.03
2018-12-24T07:54:07.817Z,100441.22
2018-12-24T07:56:34.101Z,100446.36
2018-12-24T07:59:00.380Z,100456.88
2018-12-24T08:01:27.216Z,100457.86
2018-12-24T08:03:53.488Z,100466.31
2018-12-24T08:06:19.769Z,100472.45
2018-12-24T08:08:46.268Z,100479.55
2018-12-24T08:11:12.561Z,100484.79
2018-12-24T08:13:38.833Z,100497.70
2018-12-24T08:16:05.342Z,100507.02
2018-12-24T08:18:31.633Z,100518.59
2018-12-24T08:20:57.915Z,100524.14
2018-12-24T08:23:24.368Z,100532.23
2018-12-24T08:25:50.698Z,100540.92
2018-12-24T08:28:16.939Z,100552.11
2018-12-24T08:30:43.378Z,100561.77
2018-12-24T08:33:10.888Z,100565.53
2018-12-24T08:35:37.163Z,100572.63
2018-12-24T08:38:03.650Z,100578.14
2018-12-24T08:40:29.933Z,100578.06
2018-12-24T08:42:56.209Z,100591.41
2018-12-24T08:45:22.753Z,100591.48
2018-12-24T08:47:49.059Z,100598.67
2018-12-24T08:50:15.349Z,100602.59
2018-12-24T08:52:41.806Z,100608.89
2018-12-24T08:55:08.360Z,100611.91
2018-12-24T08:57:34.980Z,100617.45
2018-12-24T09:00:01.551Z,100614.95
2018-12-24T09:02:27.827Z,100625.33
2018-12-24T09:04:54.113Z,100632.11
2018-12-24T09:07:20.596Z,100639.12
2018-12-24T09:09:46.860Z,100641.25
2018-12-24T09:12:13.206Z,100643.45
2018-12-24T09:14:39.652Z,100649.34
2018-12-24T09:17:05.922Z,100652.70
2018-12-24T09:19:32.457Z,100639.28
2018-12-24T09:21:58.909Z,100656.97
2018-12-24T09:24:25.465Z,100658.91
2018-12-24T09:26:52.097Z,100669.72
2018-12-24T09:29:18.553Z,100674.39
2018-12-24T09:31:44.829Z,100685.02
2018-12-24T09:34:11.610Z,100684.95
2018-12-24T09:36:37.979Z,100689.03
2018-12-24T09:39:05.377Z,100698.15
2018-12-24T09:49:17.922Z,100713.39
2018-12-24T09:52:18.765Z,100720.91
2018-12-24T10:03:31.879Z,100718.87
2018-12-24T10:45:02.318Z,100785.18
2018-12-24T10:55:15.696Z,100776.18
2018-12-24T11:02:02.464Z,100788.63
2018-12-24T11:11:48.490Z,100793.97
2018-12-24T11:14:53.145Z,100792.34
2018-12-24T11:17:32.606Z,100795.41
2018-12-24T11:20:19.278Z,100798.38
2018-12-24T12:18:18.991Z,100863.55
2018-12-24T12:28:23.044Z,100897.84
2018-12-24T12:32:10.059Z,100914.19
2018-12-24T12:34:49.838Z,100923.89
2018-12-24T12:37:36.566Z,100924.61
2018-12-24T12:58:07.496Z,100964.42
2018-12-24T13:09:07.610Z,100992.77
2018-12-24T13:39:54.472Z,101062.01
2018-12-24T13:49:10.827Z,101077.98
2018-12-24T13:51:44.010Z,101081.36
2018-12-24T13:55:26.515Z,101081.77
2018-12-24T13:58:00.717Z,101087.09
2018-12-24T14:00:45.850Z,101091.22
2018-12-24T14:03:22.471Z,101090.92
2018-12-24T14:08:51.754Z,101107.03
2018-12-24T14:11:24.432Z,101115.89
2018-12-24T14:14:09.770Z,101120.60
2018-12-24T14:16:44.643Z,101122.59
2018-12-24T14:19:29.447Z,101127.15
2018-12-24T14:22:03.823Z,101133.09
2018-12-24T14:24:43.159Z,101142.70
2018-12-24T14:27:22.129Z,101143.34
2018-12-24T14:30:04.616Z,101141.55
2018-12-24T14:32:37.452Z,101144.82
2018-12-24T14:35:35.065Z,101155.77
2018-12-24T14:41:25.324Z,101178.44
2018-12-24T14:49:49.751Z,101196.83
2018-12-24T14:52:32.163Z,101202.53
2018-12-24T14:55:19.794Z,101211.02
2018-12-24T15:00:56.805Z,101215.94
2018-12-24T15:03:31.224Z,101219.70
2018-12-24T15:06:10.205Z,101223.98
2018-12-24T15:08:56.588Z,101228.83
2018-12-24T15:11:36.637Z,101227.45
2018-12-24T15:14:16.998Z,101227.33
2018-12-24T15:16:57.457Z,101235.23
2018-12-24T15:19:58.846Z,101248.66
2018-12-24T15:22:32.407Z,101251.30
2018-12-24T15:28:19.643Z,101273.20
2018-12-24T15:31:11.766Z,101269.05
2018-12-24T15:36:52.589Z,101274.77
2018-12-24T15:39:35.724Z,101277.73
2018-12-24T15:42:21.165Z,101276.94
2018-12-24T15:45:18.968Z,101277.61
2018-12-24T15:48:08.251Z,101283.27
2018-12-24T15:51:02.778Z,101293.88
2018-12-24T15:53:35.763Z,101302.58
2018-12-24T15:56:14.410Z,101300.41
2018-12-24T15:58:48.161Z,101307.83
2018-12-24T16:01:37.200Z,101308.13
2018-12-24T16:04:25.650Z,101316.97
2018-12-24T16:07:25.127Z,101325.88
2018-12-24T16:10:02.544Z,101330.39
2018-12-24T17:54:33.248Z,101323.19
2018-12-24T18:26:00.684Z,101388.10
2018-12-24T18:29:12.130Z,101382.36
2018-12-24T18:35:27.848Z,101391.84
2018-12-24T18:38:00.883Z,101385.34
2018-12-24T18:40:27.038Z,101386.81
2018-12-24T18:42:59.510Z,101373.44
2018-12-24T18:45:25.666Z,101373.63
2018-12-24T18:47:51.871Z,101373.69
2018-12-24T18:50:25.150Z,101366.11
2018-12-24T18:52:51.373Z,101373.30
2018-12-24T18:55:24.908Z,101370.45
2018-12-24T18:57:51.116Z,101377.62
2018-12-24T19:00:17.530Z,101374.98
2018-12-24T19:02:49.843Z,101361.86
2018-12-24T19:05:15.991Z,101356.47
2018-12-24T19:07:42.159Z,101349.59
2018-12-24T19:10:14.588Z,101346.63
2018-12-24T19:12:40.797Z,101336.05
2018-12-24T19:15:06.960Z,101342.75
2018-12-24T19:17:41.514Z,101358.70
2018-12-24T19:20:07.995Z,101365.90
2018-12-24T19:22:40.897Z,101364.22
2018-12-24T19:25:07.031Z,101363.45
2018-12-24T19:27:33.191Z,101360.05
2018-12-24T19:30:05.572Z,101360.62
2018-12-24T19:32:31.771Z,101362.27
2018-12-24T19:35:18.302Z,101360.33
2018-12-24T19:37:44.468Z,101346.98
2018-12-24T19:40:10.769Z,101348.05
2018-12-24T19:42:43.881Z,101352.41
2018-12-24T19:45:10.043Z,101347.02
2018-12-24T19:47:36.241Z,101348.87
2018-12-24T19:50:08.717Z,101356.44
2018-12-24T19:52:34.876Z,101352.33
2018-12-24T19:55:01.064Z,101351.53
2018-12-24T19:57:33.755Z,101344.65
2018-12-24T19:59:59.912Z,101355.02
2018-12-24T20:02:26.101Z,101357.11
2018-12-24T20:04:59.398Z,101362.99
2018-12-24T20:07:25.584Z,101362.20
2018-12-24T20:09:51.728Z,101365.63
2018-12-24T20:12:24.096Z,101366.88
2018-12-24T20:14:50.255Z,101367.55
2018-12-24T20:17:16.657Z,101363.63
2018-12-24T20:19:49.991Z,101359.42
2018-12-24T20:22:16.322Z,101366.66
2018-12-24T20:24:42.488Z,101359.69
2018-12-24T20:27:15.173Z,101362.75
2018-12-24T20:29:41.329Z,101368.63
2018-12-24T20:32:07.482Z,101365.70
2018-12-24T20:34:39.934Z,101367.82
2018-12-24T20:37:19.092Z,101372.89
2018-12-24T20:39:45.375Z,101370.11
2018-12-24T20:42:11.569Z,101369.97
2018-12-24T20:44:44.256Z,101368.04
2018-12-24T20:47:10.421Z,101366.98
2018-12-24T20:49:36.579Z,101372.52
2018-12-24T20:52:09.388Z,101372.63
2018-12-24T20:54:35.569Z,101377.98
2018-12-24T20:57:08.208Z,101376.66
2018-12-24T20:59:34.372Z,101379.62
2018-12-24T21:02:07.051Z,101385.86
2018-12-24T21:04:40.126Z,101390.55
2018-12-24T21:07:06.278Z,101387.09
2018-12-24T21:09:32.508Z,101390.06
2018-12-24T21:12:04.796Z,101387.27
2018-12-24T21:14:30.948Z,101385.95
2018-12-24T21:16:57.117Z,101384.44
2018-12-24T21:19:30.200Z,101383.67
2018-12-24T21:21:56.359Z,101386.21
2018-12-24T21:24:22.507Z,101385.72
2018-12-24T21:26:55.653Z,101400.48
2018-12-24T21:29:21.809Z,101397.58
2018-12-24T21:31:47.961Z,101412.45
2018-12-24T21:34:27.839Z,101414.88
2018-12-24T21:37:08.075Z,101414.86
2018-12-24T21:39:34.225Z,101416.73
2018-12-24T21:42:00.385Z,101413.63
2018-12-24T21:44:33.654Z,101404.31
2018-12-24T21:46:59.851Z,101401.70
2018-12-24T21:49:26.018Z,101390.78
2018-12-24T21:51:58.985Z,101385.47
2018-12-24T21:54:25.460Z,101373.13
2018-12-24T21:56:57.827Z,101373.16
2018-12-24T21:59:24.013Z,101367.80
2018-12-24T22:01:50.160Z,101382.58
2018-12-24T22:04:22.593Z,101380.02
2018-12-24T22:06:48.765Z,101375.95
2018-12-24T22:09:14.926Z,101378.17
2018-12-24T22:11:47.663Z,101391.00
2018-12-24T22:14:13.847Z,101373.62
2018-12-24T22:16:46.830Z,101368.86
2018-12-24T22:19:12.992Z,101361.33
2018-12-24T22:21:39.399Z,101361.52
2018-12-24T22:24:18.729Z,101361.69
2018-12-24T22:26:44.917Z,101361.50
2018-12-24T22:29:11.080Z,101363.97
2018-12-24T22:31:43.977Z,101363.13
2018-12-24T22:34:10.156Z,101342.20
2018-12-24T22:36:42.792Z,101359.48
2018-12-24T22:39:15.493Z,101362.47
2018-12-24T22:41:41.680Z,101351.11
2018-12-24T22:44:07.837Z,101342.15
2018-12-24T22:46:40.225Z,101326.72
2018-12-24T22:49:06.398Z,101321.87
2018-12-24T22:51:32.517Z,101330.05
2018-12-24T22:54:05.908Z,101328.47
2018-12-24T22:56:32.096Z,101328.84
2018-12-24T22:58:58.242Z,101328.96
2018-12-24T23:01:31.650Z,101325.83
2018-12-24T23:03:57.825Z,101311.81
2018-12-24T23:06:23.981Z,101310.08
2018-12-24T23:08:56.927Z,101311.11
2018-12-24T23:11:23.372Z,101311.72
2018-12-24T23:13:49.544Z,101307.84
2018-12-24T23:16:22.606Z,101323.56
2018-12-24T23:18:49.608Z,101316.59
2018-12-24T23:21:16.039Z,101322.56
2018-12-24T23:23:49.383Z,101335.34
2018-12-24T23:26:21.707Z,101341.69
2018-12-24T23:28:47.854Z,101341.55
2018-12-24T23:31:20.124Z,101347.48
2018-12-24T23:33:52.964Z,101345.93
2018-12-24T23:36:26.129Z,101338.02
2018-12-24T23:38:52.276Z,101337.02
2018-12-24T23:41:24.946Z,101344.19
2018-12-24T23:43:51.111Z,101350.62
2018-12-24T23:46:17.285Z,101344.86
2018-12-24T23:48:57.490Z,101335.73
2018-12-24T23:51:18.002Z,101350.80
2018-12-24T23:53:46.057Z,101340.22
2018-12-24T23:56:18.801Z,101341.27
2018-12-24T23:58:44.964Z,101335.80
